sensor_id;sensor_type;location;lat;lon;timestamp;pressure;altitude;pressure_sealevel;temperature;humidity
34241;BME280;20503;50.200;19.508;2023-01-28T00:02:15;102036.19;;;-1.42;100.00
34241;BME280;20503;50.200;19.508;2023-01-28T00:07:26;102045.29;;;-1.44;100.00
34241;BME280;20503;50.200;19.508;2023-01-28T00:12:36;102047.14;;;-1.45;100.00
34241;BME280;20503;50.200;19.508;2023-01-28T00:17:47;102048.44;;;-1.38;100.00
34241;BME280;20503;50.200;19.508;2023-01-28T00:22:58;102047.02;;;-1.43;100.00
34241;BME280;20503;50.200;19.508;2023-01-28T00:28:09;102053.47;;;-1.46;100.00
34241;BME280;20503;50.200;19.508;2023-01-28T00:33:20;102066.18;;;-1.35;100.00
34241;BME280;20503;50.200;19.508;2023-01-28T00:38:31;102061.31;;;-1.43;100.00
34241;BME280;20503;50.200;19.508;2023-01-28T00:43:42;102058.42;;;-1.40;100.00
34241;BME280;20503;50.200;19.508;2023-01-28T00:48:52;102063.88;;;-1.41;100.00
34241;BME280;20503;50.200;19.508;2023-01-28T00:54:03;102054.11;;;-1.42;100.00
34241;BME280;20503;50.200;19.508;2023-01-28T00:59:14;102048.64;;;-1.41;100.00
34241;BME280;20503;50.200;19.508;2023-01-28T01:04:24;102055.07;;;-1.43;100.00
34241;BME280;20503;50.200;19.508;2023-01-28T01:09:35;102060.90;;;-1.37;100.00
34241;BME280;20503;50.200;19.508;2023-01-28T01:14:46;102048.95;;;-1.45;100.00
34241;BME280;20503;50.200;19.508;2023-01-28T01:19:57;102057.20;;;-1.48;100.00
34241;BME280;20503;50.200;19.508;2023-01-28T01:25:08;102059.38;;;-1.41;100.00
34241;BME280;20503;50.200;19.508;2023-01-28T01:30:18;102064.09;;;-1.44;100.00
34241;BME280;20503;50.200;19.508;2023-01-28T01:35:29;102066.69;;;-1.43;100.00
34241;BME280;20503;50.200;19.508;2023-01-28T01:40:40;102065.16;;;-1.47;100.00
34241;BME280;20503;50.200;19.508;2023-01-28T01:45:58;102082.87;;;-1.44;100.00
34241;BME280;20503;50.200;19.508;2023-01-28T01:51:09;102076.74;;;-1.46;100.00
34241;BME280;20503;50.200;19.508;2023-01-28T01:56:17;102081.27;;;-1.47;100.00
34241;BME280;20503;50.200;19.508;2023-01-28T02:01:26;102089.12;;;-1.44;100.00
34241;BME280;20503;50.200;19.508;2023-01-28T02:06:35;102085.76;;;-1.47;100.00
34241;BME280;20503;50.200;19.508;2023-01-28T02:11:45;102087.27;;;-1.43;100.00
34241;BME280;20503;50.200;19.508;2023-01-28T02:16:56;102084.92;;;-1.48;100.00
34241;BME280;20503;50.200;19.508;2023-01-28T02:22:18;102082.12;;;-1.46;100.00
34241;BME280;20503;50.200;19.508;2023-01-28T02:27:34;102076.29;;;-1.53;100.00
34241;BME280;20503;50.200;19.508;2023-01-28T02:32:45;102067.84;;;-1.47;100.00
34241;BME280;20503;50.200;19.508;2023-01-28T02:37:57;102077.80;;;-1.49;100.00
34241;BME280;20503;50.200;19.508;2023-01-28T02:43:00;102075.91;;;-1.47;100.00
34241;BME280;20503;50.200;19.508;2023-01-28T02:48:01;102076.29;;;-1.53;100.00
34241;BME280;20503;50.200;19.508;2023-01-28T02:53:22;102084.92;;;-1.48;100.00
34241;BME280;20503;50.200;19.508;2023-01-28T03:04:00;102076.33;;;-1.40;100.00
34241;BME280;20503;50.200;19.508;2023-01-28T03:09:05;102079.14;;;-1.42;100.00
34241;BME280;20503;50.200;19.508;2023-01-28T03:14:20;102076.08;;;-1.50;100.00
34241;BME280;20503;50.200;19.508;2023-01-28T03:19:35;102078.01;;;-1.52;100.00
34241;BME280;20503;50.200;19.508;2023-01-28T03:24:52;102072.84;;;-1.55;100.00
34241;BME280;20503;50.200;19.508;2023-01-28T03:30:13;102080.34;;;-1.60;100.00
34241;BME280;20503;50.200;19.508;2023-01-28T03:35:29;102088.10;;;-1.55;100.00
34241;BME280;20503;50.200;19.508;2023-01-28T03:40:54;102087.98;;;-1.54;100.00
34241;BME280;20503;50.200;19.508;2023-01-28T03:45:55;102082.90;;;-1.58;100.00
34241;BME280;20503;50.200;19.508;2023-01-28T03:50:57;102092.05;;;-1.61;100.00
34241;BME280;20503;50.200;19.508;2023-01-28T03:56:01;102085.70;;;-1.60;100.00
34241;BME280;20503;50.200;19.508;2023-01-28T04:01:02;102080.80;;;-1.53;100.00
34241;BME280;20503;50.200;19.508;2023-01-28T04:06:05;102089.49;;;-1.50;100.00
34241;BME280;20503;50.200;19.508;2023-01-28T04:11:07;102085.80;;;-1.61;100.00
34241;BME280;20503;50.200;19.508;2023-01-28T04:16:19;102081.30;;;-1.61;100.00
34241;BME280;20503;50.200;19.508;2023-01-28T04:21:20;102087.98;;;-1.54;100.00
34241;BME280;20503;50.200;19.508;2023-01-28T04:26:25;102099.13;;;-1.60;100.00
34241;BME280;20503;50.200;19.508;2023-01-28T04:31:36;102103.25;;;-1.54;100.00
34241;BME280;20503;50.200;19.508;2023-01-28T04:36:46;102104.29;;;-1.57;100.00
34241;BME280;20503;50.200;19.508;2023-01-28T04:41:57;102112.55;;;-1.60;100.00
34241;BME280;20503;50.200;19.508;2023-01-28T04:47:08;102110.83;;;-1.61;100.00
34241;BME280;20503;50.200;19.508;2023-01-28T04:52:19;102111.88;;;-1.63;100.00
34241;BME280;20503;50.200;19.508;2023-01-28T04:57:30;102109.75;;;-1.58;100.00
34241;BME280;20503;50.200;19.508;2023-01-28T05:02:40;102113.02;;;-1.53;100.00
34241;BME280;20503;50.200;19.508;2023-01-28T05:07:53;102124.59;;;-1.53;100.00
34241;BME280;20503;50.200;19.508;2023-01-28T05:13:02;102127.27;;;-1.53;100.00
34241;BME280;20503;50.200;19.508;2023-01-28T05:18:13;102114.67;;;-1.65;100.00
34241;BME280;20503;50.200;19.508;2023-01-28T05:23:24;102117.15;;;-1.62;100.00
34241;BME280;20503;50.200;19.508;2023-01-28T05:28:35;102116.95;;;-1.59;100.00
34241;BME280;20503;50.200;19.508;2023-01-28T05:33:45;102123.55;;;-1.50;100.00
34241;BME280;20503;50.200;19.508;2023-01-28T05:38:56;102125.36;;;-1.51;100.00
34241;BME280;20503;50.200;19.508;2023-01-28T05:44:07;102138.52;;;-1.60;100.00
34241;BME280;20503;50.200;19.508;2023-01-28T05:49:17;102145.30;;;-1.55;100.00
34241;BME280;20503;50.200;19.508;2023-01-28T05:54:28;102147.43;;;-1.60;100.00
34241;BME280;20503;50.200;19.508;2023-01-28T05:59:39;102151.84;;;-1.59;100.00
34241;BME280;20503;50.200;19.508;2023-01-28T06:04:50;102164.30;;;-1.58;100.00
34241;BME280;20503;50.200;19.508;2023-01-28T06:10:01;102165.93;;;-1.55;100.00
34241;BME280;20503;50.200;19.508;2023-01-28T06:15:11;102174.84;;;-1.55;100.00
34241;BME280;20503;50.200;19.508;2023-01-28T06:20:22;102184.13;;;-1.60;100.00
